Time;durP1;ratioP1;P1;durP2;ratioP2;P2;SDS_P1;SDS_P2;PMS_P1;PMS_P2;Temp;Humidity;BMP_temperature;BMP_pressure;BME280_temperature;BME280_humidity;BME280_pressure;Samples;Min_cycle;Max_cycle;Signal;HPM_P1;HPM_P2
2021/06/26 00:00:18;;;;;;;44.53;32.27;;;;;;;17.34;85.72;101942.25;5030214;28;20274;-73
2021/06/26 00:02:44;;;;;;;50.00;33.00;;;;;;;17.28;85.66;101932.25;5032369;28;20184;-69
2021/06/26 00:05:11;;;;;;;54.10;35.17;;;;;;;17.55;85.60;101973.63;5028324;28;20574;-71
2021/06/26 00:07:37;;;;;;;48.33;32.73;;;;;;;17.27;85.59;101942.28;5031133;28;20908;-72
2021/06/26 00:10:05;;;;;;;44.73;32.47;;;;;;;17.55;85.33;101979.03;5034710;28;20495;-72
2021/06/26 00:12:31;;;;;;;49.77;32.30;;;;;;;17.66;85.22;101972.94;5028257;28;20449;-73
2021/06/26 00:14:57;;;;;;;43.60;31.90;;;;;;;17.69;85.38;101977.91;5032038;28;20446;-73
2021/06/26 00:17:22;;;;;;;47.87;33.13;;;;;;;17.51;85.59;101975.94;5026850;28;20684;-75
2021/06/26 00:19:48;;;;;;;47.50;33.10;;;;;;;16.88;86.69;101889.91;5031920;28;20266;-73
2021/06/26 00:22:13;;;;;;;42.17;30.43;;;;;;;17.46;86.78;101972.22;5029011;28;20207;-75
2021/06/26 00:24:38;;;;;;;46.17;34.30;;;;;;;17.26;86.54;101940.59;5036089;28;20684;-73
2021/06/26 00:27:04;;;;;;;44.70;32.60;;;;;;;17.38;85.95;101941.56;5030228;28;20747;-70
2021/06/26 00:29:30;;;;;;;48.90;33.73;;;;;;;17.33;86.02;101954.97;5035640;28;20270;-72
2021/06/26 00:31:55;;;;;;;49.23;31.10;;;;;;;17.15;86.12;101930.44;5038767;28;20184;-70
2021/06/26 00:34:20;;;;;;;43.83;32.57;;;;;;;17.35;86.18;101971.84;5040554;28;20623;-70
2021/06/26 00:36:46;;;;;;;51.07;33.80;;;;;;;17.48;85.68;101967.41;5037714;28;20181;-74
2021/06/26 00:39:12;;;;;;;49.53;34.97;;;;;;;17.45;85.86;101960.53;5035413;28;20192;-72
2021/06/26 00:41:38;;;;;;;46.63;31.50;;;;;;;17.45;86.49;101973.28;5032324;28;20584;-72
2021/06/26 00:44:07;;;;;;;45.53;33.50;;;;;;;17.49;86.15;101972.59;5035300;28;20188;-72
2021/06/26 00:46:32;;;;;;;49.33;32.80;;;;;;;17.37;86.86;101967.03;5040792;28;20834;-72
2021/06/26 00:48:58;;;;;;;49.97;34.00;;;;;;;17.44;86.64;101968.88;5041689;28;20430;-70
2021/06/26 00:51:23;;;;;;;50.57;33.67;;;;;;;17.38;86.73;101973.28;5036164;28;20214;-70
2021/06/26 00:53:49;;;;;;;45.57;33.47;;;;;;;17.35;86.43;101963.69;5037849;28;20719;-70
2021/06/26 00:56:14;;;;;;;48.53;31.63;;;;;;;17.35;86.46;101962.88;5036815;28;20180;-71
2021/06/26 00:58:40;;;;;;;52.30;33.67;;;;;;;17.35;86.61;101957.44;5033704;28;20215;-75
2021/06/26 01:01:05;;;;;;;48.67;32.60;;;;;;;17.34;86.81;101978.31;5037637;28;20188;-71
2021/06/26 01:03:31;;;;;;;55.90;34.67;;;;;;;17.30;87.11;101976.25;5036916;28;20274;-74
2021/06/26 01:05:56;;;;;;;52.03;34.20;;;;;;;17.31;86.85;101984.19;5036579;28;20242;-72
2021/06/26 01:08:24;;;;;;;56.50;35.53;;;;;;;17.14;87.10;101953.19;5039750;28;20220;-72
2021/06/26 01:10:50;;;;;;;44.80;32.33;;;;;;;17.27;87.27;101979.38;5033513;28;20199;-79
2021/06/26 01:13:15;;;;;;;54.47;32.67;;;;;;;17.13;87.06;101956.94;5034711;28;20443;-73
2021/06/26 01:15:41;;;;;;;54.00;33.87;;;;;;;17.28;87.30;101989.22;5033576;28;20181;-71
2021/06/26 01:18:06;;;;;;;55.33;34.47;;;;;;;17.19;87.24;101964.22;5032204;28;20707;-71
2021/06/26 01:20:31;;;;;;;49.70;33.87;;;;;;;17.10;87.13;101950.06;5036909;28;20275;-73
2021/06/26 01:23:00;;;;;;;47.10;32.37;;;;;;;17.36;87.30;101991.69;5033343;28;20179;-72
2021/06/26 01:25:27;;;;;;;47.33;33.10;;;;;;;17.25;87.92;101989.63;5036094;28;20837;-71
2021/06/26 01:27:56;;;;;;;52.93;34.70;;;;;;;17.33;87.58;101995.66;5032332;28;20498;-72
2021/06/26 01:30:30;;;;;;;47.50;34.30;;;;;;;17.36;87.24;101992.50;5036168;28;20452;-71
2021/06/26 01:32:56;;;;;;;48.57;34.23;;;;;;;17.27;87.84;101987.53;5037983;28;20532;-71
2021/06/26 01:35:21;;;;;;;50.30;34.50;;;;;;;17.33;87.72;101987.50;5035670;28;20521;-74
2021/06/26 01:37:47;;;;;;;47.13;33.67;;;;;;;17.26;87.73;101983.16;5034892;28;20266;-71
2021/06/26 01:40:19;;;;;;;50.43;35.30;;;;;;;17.13;87.93;101962.38;5034772;28;20188;-72
2021/06/26 01:42:46;;;;;;;50.47;34.87;;;;;;;17.25;87.65;101979.63;5035533;28;20979;-73
2021/06/26 01:45:12;;;;;;;51.37;34.20;;;;;;;17.29;87.28;101977.31;5033443;28;20473;-73
2021/06/26 01:47:44;;;;;;;56.40;37.83;;;;;;;17.06;87.45;101950.72;5029518;28;20547;-72
2021/06/26 01:50:10;;;;;;;51.40;35.43;;;;;;;17.37;87.02;101988.72;5039460;28;20851;-71
2021/06/26 01:52:36;;;;;;;53.80;35.63;;;;;;;17.46;86.89;101983.88;5032984;28;20454;-71
2021/06/26 01:55:02;;;;;;;52.67;34.50;;;;;;;17.27;87.75;101985.66;5034674;28;20179;-76
2021/06/26 01:57:28;;;;;;;48.33;33.50;;;;;;;17.11;88.04;101973.41;5036893;28;20480;-76
2021/06/26 01:59:53;;;;;;;46.70;33.60;;;;;;;17.27;87.85;101992.94;5050332;28;20188;-75
2021/06/26 02:02:18;;;;;;;46.30;34.43;;;;;;;17.26;87.92;101992.13;5031307;28;20189;-71
2021/06/26 02:04:44;;;;;;;46.60;33.03;;;;;;;17.25;87.23;101968.78;5034976;28;20175;-70
2021/06/26 02:07:09;;;;;;;44.80;31.83;;;;;;;17.32;87.66;101991.25;5035637;28;20317;-74
2021/06/26 02:09:35;;;;;;;46.43;32.70;;;;;;;16.98;88.01;101953.66;5034219;28;20192;-72
2021/06/26 02:12:02;;;;;;;46.53;30.87;;;;;;;16.61;87.91;101942.50;5033819;28;20195;-72
2021/06/26 02:14:27;;;;;;;48.67;33.20;;;;;;;17.27;87.76;101995.66;5034010;28;20220;-73
2021/06/26 02:16:53;;;;;;;48.93;32.27;;;;;;;17.05;88.07;101978.88;5035661;28;21070;-71
2021/06/26 02:19:18;;;;;;;52.87;33.67;;;;;;;17.12;88.25;101980.50;5032589;28;20199;-76
2021/06/26 02:21:44;;;;;;;49.87;33.23;;;;;;;17.22;88.50;101996.31;5034095;28;20188;-77
2021/06/26 02:24:09;;;;;;;49.30;34.43;;;;;;;17.11;88.05;101978.00;5030738;28;20477;-71
2021/06/26 02:26:35;;;;;;;51.07;32.83;;;;;;;17.06;87.80;101973.22;5034981;28;20206;-71
2021/06/26 02:29:00;;;;;;;50.77;35.00;;;;;;;16.96;88.19;101975.56;5028549;28;20180;-74
2021/06/26 02:31:25;;;;;;;51.30;34.20;;;;;;;16.75;88.37;101935.16;5033482;28;20187;-71
2021/06/26 02:33:51;;;;;;;44.67;28.83;;;;;;;17.10;88.00;101979.91;5032034;28;20188;-75
2021/06/26 02:36:16;;;;;;;46.63;31.73;;;;;;;17.06;87.87;101985.94;5035701;28;20646;-75
2021/06/26 02:38:41;;;;;;;41.87;29.23;;;;;;;17.17;87.62;101985.28;5033921;28;20985;-73
2021/06/26 02:41:07;;;;;;;57.70;32.30;;;;;;;17.00;88.21;101992.22;5029891;28;20246;-71
2021/06/26 02:43:32;;;;;;;49.70;31.47;;;;;;;16.89;88.54;101985.56;5033819;28;20224;-71
2021/06/26 02:45:58;;;;;;;51.20;32.83;;;;;;;16.87;88.90;101991.22;5035098;28;20191;-72
2021/06/26 02:48:23;;;;;;;44.63;30.23;;;;;;;17.06;88.10;101999.50;5034585;28;20211;-74
2021/06/26 02:50:49;;;;;;;47.70;30.80;;;;;;;17.02;88.47;102003.69;5030761;28;20544;-72
2021/06/26 02:53:14;;;;;;;47.83;30.40;;;;;;;16.93;88.69;101995.78;5028986;28;20242;-70
2021/06/26 02:55:40;;;;;;;40.13;27.10;;;;;;;17.15;87.99;101998.22;5033951;28;20200;-71
2021/06/26 02:58:05;;;;;;;53.10;32.20;;;;;;;16.86;88.72;101981.41;5031168;28;20227;-75
2021/06/26 03:00:31;;;;;;;44.33;30.53;;;;;;;16.76;88.91;101970.19;5032221;28;20188;-71
2021/06/26 03:02:56;;;;;;;41.23;28.50;;;;;;;17.07;88.47;102006.59;5035157;28;20198;-71
2021/06/26 03:05:21;;;;;;;43.47;29.07;;;;;;;16.76;88.38;101950.38;5033782;28;20192;-73
2021/06/26 03:07:51;;;;;;;43.40;29.80;;;;;;;17.01;88.08;101993.88;5033125;28;20281;-71
2021/06/26 03:10:20;;;;;;;38.33;26.07;;;;;;;17.16;88.15;102011.56;5035357;28;20669;-73
2021/06/26 03:12:46;;;;;;;48.30;29.37;;;;;;;16.93;87.82;101984.94;5031628;28;20846;-73
2021/06/26 03:15:12;;;;;;;33.43;25.67;;;;;;;16.91;88.00;101972.66;5031950;28;20447;-71
2021/06/26 03:17:37;;;;;;;42.20;24.63;;;;;;;17.18;88.32;102011.34;5035267;28;20203;-71
2021/06/26 03:20:05;;;;;;;39.50;24.97;;;;;;;17.12;87.64;101994.03;5029025;28;20988;-72
2021/06/26 03:22:30;;;;;;;39.77;26.40;;;;;;;17.17;87.87;102009.69;5030674;28;20192;-74
2021/06/26 03:24:55;;;;;;;46.37;29.23;;;;;;;17.15;87.95;102011.75;5030060;28;20881;-71
2021/06/26 03:27:21;;;;;;;43.20;27.50;;;;;;;17.23;87.78;102019.66;5036133;28;20234;-72
2021/06/26 03:29:46;;;;;;;45.33;30.27;;;;;;;17.16;87.57;102008.84;5040023;28;20279;-72
2021/06/26 03:32:14;;;;;;;43.40;28.50;;;;;;;17.12;87.46;101996.75;5032239;28;20256;-72
2021/06/26 03:34:40;;;;;;;41.23;27.97;;;;;;;17.17;87.14;101993.41;5033613;28;20214;-71
2021/06/26 03:37:05;;;;;;;45.50;30.20;;;;;;;17.27;87.43;102022.78;5030782;28;21465;-71
2021/06/26 03:39:31;;;;;;;45.83;28.33;;;;;;;17.28;87.25;102025.28;5035118;28;20209;-72
2021/06/26 03:41:56;;;;;;;44.63;29.87;;;;;;;17.05;87.64;102003.25;5029930;28;20192;-72
2021/06/26 03:44:22;;;;;;;53.70;33.93;;;;;;;16.93;87.89;101995.78;5027666;28;20208;-72
2021/06/26 03:46:47;;;;;;;53.83;33.67;;;;;;;16.97;87.43;101985.34;5028127;28;20200;-77
2021/06/26 03:49:12;;;;;;;41.13;27.80;;;;;;;17.22;87.18;102001.75;5036891;28;20188;-77
2021/06/26 03:51:39;;;;;;;41.30;27.50;;;;;;;17.49;86.01;102018.72;5036242;28;20237;-71
2021/06/26 03:54:04;;;;;;;38.73;26.30;;;;;;;17.26;86.45;101989.41;5030455;28;20195;-71
2021/06/26 03:56:30;;;;;;;48.30;28.50;;;;;;;17.41;86.64;102016.25;5033453;28;20492;-73
2021/06/26 03:58:55;;;;;;;42.70;29.57;;;;;;;17.38;86.70;102000.41;5033404;28;20187;-70
2021/06/26 04:01:20;;;;;;;41.90;26.87;;;;;;;16.85;86.06;101903.06;5028448;28;20194;-70
2021/06/26 04:03:46;;;;;;;47.63;27.30;;;;;;;17.65;85.45;102006.53;5031863;28;20625;-74
2021/06/26 04:06:12;;;;;;;41.00;25.90;;;;;;;17.58;85.66;102003.84;5035479;28;20553;-74
2021/06/26 04:08:37;;;;;;;40.20;27.23;;;;;;;17.54;85.95;102009.94;5030419;28;20473;-70
2021/06/26 04:11:03;;;;;;;40.37;27.13;;;;;;;17.33;85.71;101968.53;5025521;28;20191;-76
2021/06/26 04:13:28;;;;;;;37.53;25.80;;;;;;;17.39;85.40;101974.97;5034391;28;20274;-72
2021/06/26 04:15:53;;;;;;;37.03;23.93;;;;;;;17.52;85.19;101984.91;5031844;28;20187;-72
2021/06/26 04:18:19;;;;;;;38.30;25.10;;;;;;;17.56;84.08;101961.72;5034807;28;20282;-75
2021/06/26 04:20:44;;;;;;;40.33;23.73;;;;;;;17.75;84.00;102004.19;5030129;28;20245;-72
2021/06/26 04:23:10;;;;;;;41.20;26.47;;;;;;;17.46;83.06;101942.38;5029405;28;20195;-71
2021/06/26 04:25:35;;;;;;;38.20;24.03;;;;;;;17.80;83.55;102004.38;5029898;28;20241;-78
2021/06/26 04:28:07;;;;;;;37.53;25.57;;;;;;;17.55;84.01;101970.91;5044739;28;20223;-71
2021/06/26 04:30:33;;;;;;;33.70;24.07;;;;;;;17.73;83.95;102003.56;5035312;28;20181;-73
2021/06/26 04:32:59;;;;;;;35.27;24.87;;;;;;;17.68;83.66;101987.13;5030936;28;20818;-77
2021/06/26 04:35:25;;;;;;;44.93;28.00;;;;;;;17.82;83.56;101999.59;5032819;28;20437;-70
2021/06/26 04:37:51;;;;;;;40.23;25.10;;;;;;;17.60;83.72;101971.91;5031677;28;20200;-72
2021/06/26 04:40:16;;;;;;;37.10;25.33;;;;;;;17.63;83.94;101984.22;5034098;28;20452;-76
2021/06/26 04:42:42;;;;;;;35.27;22.93;;;;;;;17.66;84.43;102012.81;5037825;28;20219;-73
2021/06/26 04:45:09;;;;;;;39.93;25.90;;;;;;;17.86;83.30;102010.81;5029459;28;20309;-75
2021/06/26 04:47:34;;;;;;;41.03;26.43;;;;;;;17.80;84.02;102020.69;5032814;28;21019;-72
2021/06/26 04:49:59;;;;;;;40.67;24.33;;;;;;;17.67;83.62;101999.00;5035366;28;20451;-73
2021/06/26 04:52:27;;;;;;;45.30;27.40;;;;;;;17.74;83.87;102007.13;5049015;28;20184;-72
2021/06/26 04:54:52;;;;;;;40.43;23.73;;;;;;;17.74;83.33;101980.00;5034089;28;20177;-72
2021/06/26 04:57:18;;;;;;;38.87;24.23;;;;;;;17.87;82.96;102011.66;5033885;28;20451;-72
2021/06/26 04:59:43;;;;;;;35.03;22.90;;;;;;;17.69;83.08;101987.94;5031408;28;20188;-72
2021/06/26 05:02:08;;;;;;;43.00;24.83;;;;;;;17.73;83.01;101992.69;5047701;28;20183;-70
2021/06/26 05:04:35;;;;;;;35.77;25.20;;;;;;;17.92;83.07;102022.69;5034684;28;20184;-74
2021/06/26 05:07:00;;;;;;;39.83;24.10;;;;;;;17.85;82.96;102011.88;5033911;28;20216;-69
2021/06/26 05:09:25;;;;;;;36.67;22.53;;;;;;;17.94;83.07;102032.28;5032393;28;20522;-71
2021/06/26 05:11:51;;;;;;;36.83;25.10;;;;;;;17.99;82.69;102034.31;5034308;28;20188;-72
2021/06/26 05:14:16;;;;;;;42.07;27.07;;;;;;;17.94;82.76;102037.72;5051448;28;20275;-73
2021/06/26 05:16:42;;;;;;;35.17;24.73;;;;;;;17.87;82.55;102030.66;5039972;28;20637;-71
2021/06/26 05:19:08;;;;;;;41.33;24.20;;;;;;;17.80;83.11;102031.53;5033113;28;20202;-75
2021/06/26 05:21:34;;;;;;;36.00;24.73;;;;;;;17.73;83.52;102025.25;5036736;28;20451;-69
2021/06/26 05:23:59;;;;;;;35.20;22.20;;;;;;;17.92;83.22;102042.53;5031713;28;20434;-71
2021/06/26 05:26:25;;;;;;;36.70;24.03;;;;;;;17.95;82.70;102033.13;5037083;28;20614;-71
2021/06/26 05:28:51;;;;;;;35.70;24.30;;;;;;;17.51;83.12;101980.53;5042921;28;20296;-72
2021/06/26 05:31:18;;;;;;;36.40;24.60;;;;;;;18.01;83.09;102043.09;5035255;28;20223;-71
2021/06/26 05:33:44;;;;;;;40.80;26.10;;;;;;;17.90;82.30;102014.75;5035522;28;20208;-77
2021/06/26 05:36:10;;;;;;;38.03;25.70;;;;;;;18.06;81.88;102024.28;5033029;28;20450;-74
2021/06/26 05:38:35;;;;;;;37.43;21.77;;;;;;;18.16;82.39;102037.34;5037637;28;20485;-70
2021/06/26 05:41:00;;;;;;;34.40;22.73;;;;;;;18.14;83.12;102040.28;5035840;28;20208;-74
2021/06/26 05:43:26;;;;;;;34.97;24.67;;;;;;;18.06;83.16;102040.56;5034469;28;20278;-72
2021/06/26 05:45:51;;;;;;;37.03;23.63;;;;;;;18.02;81.60;102012.16;5033532;28;20183;-70
2021/06/26 05:48:16;;;;;;;31.43;21.53;;;;;;;18.08;81.79;102008.59;5035596;28;20273;-70
2021/06/26 05:50:42;;;;;;;37.73;23.23;;;;;;;18.24;82.01;102047.94;5035861;28;20554;-69
2021/06/26 05:53:07;;;;;;;40.40;24.57;;;;;;;18.20;81.34;102023.13;5038928;28;20191;-68
2021/06/26 05:55:33;;;;;;;47.40;28.50;;;;;;;18.09;81.48;102018.41;5035154;28;20188;-70
2021/06/26 05:57:58;;;;;;;45.57;28.07;;;;;;;18.27;81.46;102047.50;5030211;28;20247;-71
2021/06/26 06:00:24;;;;;;;36.50;24.00;;;;;;;18.32;81.78;102046.84;5032555;28;20200;-72
2021/06/26 06:02:50;;;;;;;38.37;23.33;;;;;;;18.32;82.13;102042.25;5035126;28;20646;-71
2021/06/26 06:05:15;;;;;;;30.97;21.57;;;;;;;18.32;81.91;102038.69;5035192;28;20624;-70
2021/06/26 06:07:43;;;;;;;30.50;21.50;;;;;;;18.40;81.41;102051.97;5033711;28;20278;-71
2021/06/26 06:10:11;;;;;;;38.17;25.57;;;;;;;18.27;80.48;102042.06;5036317;28;20583;-69
2021/06/26 06:12:38;;;;;;;35.50;24.17;;;;;;;18.17;81.84;102045.28;5035363;28;20741;-70
2021/06/26 06:15:06;;;;;;;48.50;27.00;;;;;;;18.34;80.77;102055.59;5038141;28;20820;-71
2021/06/26 06:17:31;;;;;;;42.77;29.33;;;;;;;18.16;81.38;102050.91;5018808;28;20504;-73
2021/06/26 06:19:56;;;;;;;45.87;29.00;;;;;;;18.24;81.35;102059.63;5033743;28;20574;-69
2021/06/26 06:22:24;;;;;;;50.73;30.07;;;;;;;18.19;81.96;102066.78;5034108;28;20195;-71
2021/06/26 06:24:50;;;;;;;47.43;28.93;;;;;;;18.21;80.86;102054.66;5034029;28;20196;-74
2021/06/26 06:27:16;;;;;;;35.97;24.13;;;;;;;18.37;80.28;102047.00;5036273;28;20926;-69
2021/06/26 06:29:41;;;;;;;47.63;28.27;;;;;;;18.32;79.70;102061.25;5036815;28;20462;-74
2021/06/26 06:32:07;;;;;;;48.10;29.50;;;;;;;18.19;79.52;102034.19;5038471;28;20199;-70
2021/06/26 06:34:33;;;;;;;50.57;29.40;;;;;;;18.31;79.47;102056.84;5027158;28;20219;-76
2021/06/26 06:36:58;;;;;;;53.53;34.47;;;;;;;18.32;79.37;102049.56;5035047;28;20223;-72
2021/06/26 06:39:25;;;;;;;48.80;31.80;;;;;;;18.07;79.87;102021.31;5040273;28;20694;-69
2021/06/26 06:41:51;;;;;;;39.17;25.43;;;;;;;18.49;78.95;102058.81;5038707;28;20576;-71
2021/06/26 06:44:16;;;;;;;32.00;23.57;;;;;;;18.57;79.49;102066.69;5029872;28;20440;-71
2021/06/26 06:46:41;;;;;;;48.90;30.10;;;;;;;18.33;80.33;102062.09;5032075;28;20192;-71
2021/06/26 06:49:07;;;;;;;34.60;23.63;;;;;;;18.56;79.31;102075.06;5028258;28;20192;-71
2021/06/26 06:51:32;;;;;;;47.63;28.47;;;;;;;18.35;79.46;102051.84;5054113;28;20183;-70
2021/06/26 06:53:58;;;;;;;50.50;31.20;;;;;;;18.35;79.03;102060.00;5036621;28;20184;-69
2021/06/26 06:56:24;;;;;;;43.23;27.57;;;;;;;18.40;79.06;102049.25;5036161;28;20618;-68
2021/06/26 06:58:49;;;;;;;41.77;22.90;;;;;;;18.32;78.18;102006.13;5032403;28;20458;-71
2021/06/26 07:01:15;;;;;;;44.37;25.97;;;;;;;18.69;78.94;102075.78;5033090;28;20227;-70
2021/06/26 07:03:40;;;;;;;51.83;30.70;;;;;;;18.60;77.54;102079.00;5032138;28;20195;-73
2021/06/26 07:06:06;;;;;;;43.60;25.90;;;;;;;18.62;78.18;102079.59;5033203;28;20451;-71
2021/06/26 07:08:31;;;;;;;37.37;24.37;;;;;;;18.72;78.12;102086.22;5030701;28;20211;-71
2021/06/26 07:10:56;;;;;;;42.77;26.83;;;;;;;18.86;77.46;102086.09;5039161;28;20633;-70
2021/06/26 07:13:22;;;;;;;39.70;24.80;;;;;;;18.81;76.87;102064.22;5035033;28;20206;-69
2021/06/26 07:15:47;;;;;;;35.73;22.97;;;;;;;18.94;76.84;102086.66;5037666;28;20632;-73
2021/06/26 07:18:13;;;;;;;36.40;22.43;;;;;;;18.86;76.48;102091.53;5026448;28;20203;-73
2021/06/26 07:20:40;;;;;;;31.83;21.13;;;;;;;18.93;76.51;102087.72;5036437;28;20294;-70
2021/06/26 07:23:06;;;;;;;32.23;20.93;;;;;;;18.96;75.91;102075.56;5039645;28;20187;-75
2021/06/26 07:25:31;;;;;;;29.37;19.23;;;;;;;19.02;74.91;102076.56;5028343;28;20982;-69
2021/06/26 07:27:57;;;;;;;29.40;20.07;;;;;;;18.93;74.75;102079.56;5031595;28;20256;-71
2021/06/26 07:30:22;;;;;;;40.87;24.33;;;;;;;18.82;75.43;102076.75;5025350;28;20511;-71
2021/06/26 07:32:50;;;;;;;40.83;23.20;;;;;;;18.84;74.85;102063.78;5031679;28;20223;-69
2021/06/26 07:35:17;;;;;;;41.07;22.47;;;;;;;19.07;75.25;102080.25;5052576;28;20235;-71
2021/06/26 07:37:43;;;;;;;32.37;20.30;;;;;;;19.06;75.35;102062.25;5051981;28;20852;-74
2021/06/26 07:40:10;;;;;;;38.53;24.57;;;;;;;19.08;75.65;102078.38;5058387;28;20549;-73
2021/06/26 07:42:36;;;;;;;38.80;23.40;;;;;;;18.95;76.16;102055.69;5043405;28;20441;-71
2021/06/26 07:45:02;;;;;;;36.30;21.20;;;;;;;19.08;74.82;102073.75;5055818;28;20957;-70
2021/06/26 07:47:27;;;;;;;35.23;22.70;;;;;;;19.11;74.34;102067.03;5059963;28;20480;-72
2021/06/26 07:49:52;;;;;;;25.37;17.30;;;;;;;19.01;73.99;102029.50;5056746;28;20179;-74
2021/06/26 07:52:18;;;;;;;34.33;21.47;;;;;;;19.24;73.67;102061.47;5057067;28;20210;-69
2021/06/26 07:54:43;;;;;;;31.40;18.40;;;;;;;19.24;73.78;102034.25;5060201;28;20183;-72
2021/06/26 07:57:08;;;;;;;30.90;20.40;;;;;;;19.12;73.63;102023.31;5059336;28;20321;-70
2021/06/26 07:59:34;;;;;;;27.63;16.13;;;;;;;19.28;73.81;102029.19;5062826;28;20190;-71
2021/06/26 08:01:59;;;;;;;20.90;15.43;;;;;;;19.54;73.05;102053.34;5059951;28;20560;-71
2021/06/26 08:04:24;;;;;;;32.80;18.67;;;;;;;19.39;73.39;102056.47;5059241;28;20183;-68
2021/06/26 08:06:50;;;;;;;34.13;20.50;;;;;;;19.41;73.78;102064.38;5061538;28;20287;-71
2021/06/26 08:09:15;;;;;;;38.17;19.93;;;;;;;19.20;73.29;102071.94;5059753;28;20671;-70
2021/06/26 08:11:41;;;;;;;24.27;17.37;;;;;;;19.15;74.25;102049.19;5055543;28;20271;-72
2021/06/26 08:14:09;;;;;;;26.90;20.30;;;;;;;19.32;74.08;102079.34;5071669;28;20183;-69
2021/06/26 08:16:34;;;;;;;35.73;22.73;;;;;;;19.32;71.49;102065.75;5075536;28;20197;-71
2021/06/26 08:19:00;;;;;;;36.23;22.03;;;;;;;19.09;72.25;102031.06;5057763;28;20433;-72
2021/06/26 08:21:26;;;;;;;29.27;17.70;;;;;;;19.29;72.15;102023.50;5061605;28;20225;-70
2021/06/26 08:23:52;;;;;;;26.00;17.47;;;;;;;19.66;73.25;102072.47;5057195;28;20253;-69
2021/06/26 08:26:17;;;;;;;35.53;17.67;;;;;;;19.40;71.90;102035.53;5059291;28;20533;-69
2021/06/26 08:28:43;;;;;;;21.17;14.70;;;;;;;19.59;70.56;102072.53;5059438;28;21214;-71
2021/06/26 08:31:08;;;;;;;24.10;16.60;;;;;;;19.39;68.85;102070.06;5057198;28;20199;-70
2021/06/26 08:33:34;;;;;;;22.33;16.07;;;;;;;19.38;70.08;102043.06;5064025;28;20267;-73
2021/06/26 08:35:59;;;;;;;21.80;14.33;;;;;;;19.56;68.13;102064.00;5071588;28;20572;-71
2021/06/26 08:38:25;;;;;;;15.43;10.40;;;;;;;19.48;69.28;102031.66;5073564;28;20194;-71
2021/06/26 08:40:53;;;;;;;27.80;15.73;;;;;;;19.66;68.07;102061.59;5061919;28;20546;-73
2021/06/26 08:43:20;;;;;;;27.27;17.10;;;;;;;19.48;68.05;102064.31;5058901;28;20194;-70
2021/06/26 08:45:45;;;;;;;23.20;14.37;;;;;;;19.59;68.57;102058.94;5061383;28;20433;-70
2021/06/26 08:48:12;;;;;;;19.10;11.97;;;;;;;19.74;68.73;102060.44;5061064;28;20555;-74
2021/06/26 08:50:38;;;;;;;29.60;19.93;;;;;;;19.49;69.37;102036.84;5052415;28;20191;-70
2021/06/26 08:53:03;;;;;;;26.07;17.37;;;;;;;19.51;69.90;102048.34;5062944;28;20444;-71
2021/06/26 08:55:28;;;;;;;19.40;13.50;;;;;;;19.28;69.89;101986.50;5064959;28;20953;-69
2021/06/26 08:57:56;;;;;;;19.00;13.77;;;;;;;19.76;70.19;102069.19;5078877;28;20245;-70
2021/06/26 09:00:24;;;;;;;25.63;15.60;;;;;;;19.73;69.38;102066.94;5064010;28;20719;-70
2021/06/26 09:02:51;;;;;;;17.70;12.53;;;;;;;19.77;69.54;102041.75;5056339;28;20853;-71
2021/06/26 09:05:28;;;;;;;21.20;12.40;;;;;;;19.88;70.01;102070.09;5059723;28;20428;-70
2021/06/26 09:07:54;;;;;;;18.80;12.37;;;;;;;19.99;69.37;102069.31;5078691;28;20477;-73
2021/06/26 09:10:21;;;;;;;19.30;13.37;;;;;;;19.75;68.85;102032.97;5062760;28;20487;-70
2021/06/26 09:12:49;;;;;;;18.63;13.00;;;;;;;19.86;69.54;102055.88;5061409;28;20187;-70
2021/06/26 09:15:23;;;;;;;29.07;13.23;;;;;;;20.05;68.54;102062.09;5063597;28;20441;-71
2021/06/26 09:17:49;;;;;;;16.27;11.90;;;;;;;20.24;69.70;102060.94;5062765;28;20480;-71
2021/06/26 09:20:14;;;;;;;12.47;9.57;;;;;;;20.13;69.63;102039.97;5060791;28;21045;-72
2021/06/26 09:22:42;;;;;;;13.43;9.50;;;;;;;20.11;68.97;102041.28;5067131;28;20257;-72
2021/06/26 09:25:29;;;;;;;11.90;8.80;;;;;;;20.31;68.90;102060.88;5057534;28;20183;-71
2021/06/26 09:27:55;;;;;;;12.53;8.63;;;;;;;20.33;69.39;102039.63;5063102;28;20475;-73
2021/06/26 09:30:39;;;;;;;13.83;8.63;;;;;;;20.46;69.97;102063.13;5060547;28;20441;-69
2021/06/26 09:33:13;;;;;;;12.70;9.90;;;;;;;20.46;68.51;102068.59;5060255;28;20440;-74
2021/06/26 09:35:39;;;;;;;14.13;10.67;;;;;;;20.35;68.78;102059.31;5061365;28;20439;-71
2021/06/26 09:38:09;;;;;;;15.67;10.47;;;;;;;20.53;68.83;102061.16;5058002;28;20978;-75
2021/06/26 09:40:38;;;;;;;19.63;11.27;;;;;;;20.42;69.43;102065.47;5063198;28;20806;-70
2021/06/26 09:43:03;;;;;;;14.97;9.90;;;;;;;20.61;68.84;102068.97;5057477;28;20528;-70
2021/06/26 09:45:28;;;;;;;15.83;10.10;;;;;;;20.22;68.80;102007.75;5063452;28;20524;-70
2021/06/26 09:48:03;;;;;;;14.30;9.27;;;;;;;20.66;69.49;102077.28;5058508;28;20210;-79
2021/06/26 09:50:29;;;;;;;12.10;8.60;;;;;;;20.67;69.72;102072.66;5057459;28;20217;-72
2021/06/26 09:52:58;;;;;;;20.67;14.20;;;;;;;20.35;69.19;102080.28;5059970;28;20524;-70
2021/06/26 09:55:25;;;;;;;16.80;11.07;;;;;;;20.33;70.13;102073.16;5061750;28;20452;-73
2021/06/26 09:57:53;;;;;;;16.40;12.47;;;;;;;20.18;69.37;102053.72;5061395;28;20457;-69
2021/06/26 10:00:23;;;;;;;19.30;10.47;;;;;;;20.51;69.98;102074.13;5054720;28;20938;-71
2021/06/26 10:02:49;;;;;;;21.77;14.10;;;;;;;20.16;69.72;102082.25;5064928;28;20452;-72
2021/06/26 10:05:16;;;;;;;16.50;11.40;;;;;;;20.41;69.55;102076.63;5064383;28;20441;-70
2021/06/26 10:07:43;;;;;;;15.53;12.20;;;;;;;20.29;68.68;102071.97;5062636;28;20302;-69
2021/06/26 10:10:12;;;;;;;18.93;10.67;;;;;;;20.18;69.58;102047.44;5064753;28;20441;-71
2021/06/26 10:12:38;;;;;;;17.20;11.27;;;;;;;20.14;68.33;102041.63;5060705;28;20465;-74
2021/06/26 10:15:05;;;;;;;20.13;11.70;;;;;;;20.09;67.46;102045.03;5062335;28;20588;-73
2021/06/26 10:17:30;;;;;;;19.77;13.80;;;;;;;20.21;67.97;102049.69;5070307;28;20302;-70
2021/06/26 10:19:59;;;;;;;18.43;12.40;;;;;;;20.35;68.08;102080.28;5055936;28;20934;-79
2021/06/26 10:22:24;;;;;;;20.27;13.50;;;;;;;20.26;67.73;102072.44;5046854;28;20187;-76
2021/06/26 10:24:53;;;;;;;17.90;10.80;;;;;;;20.35;67.24;102078.41;5054121;28;20446;-73
2021/06/26 10:27:22;;;;;;;11.67;9.30;;;;;;;20.48;67.21;102075.47;5061618;28;20298;-71
2021/06/26 10:29:48;;;;;;;14.07;8.63;;;;;;;20.67;67.36;102065.31;5054243;28;20434;-72
2021/06/26 10:32:17;;;;;;;9.03;7.63;;;;;;;20.54;66.66;102074.56;5058591;28;20425;-72
2021/06/26 10:34:44;;;;;;;13.47;9.93;;;;;;;20.36;65.73;102068.31;5069854;28;20472;-70
2021/06/26 10:37:21;;;;;;;15.17;8.83;;;;;;;20.20;65.66;102048.03;5051112;28;20487;-68
2021/06/26 10:40:01;;;;;;;12.53;7.87;;;;;;;20.47;66.22;102059.34;5056143;28;20443;-69
2021/06/26 10:42:33;;;;;;;7.73;6.23;;;;;;;20.67;66.23;102070.75;5054679;28;20934;-68
2021/06/26 10:45:00;;;;;;;10.50;7.60;;;;;;;20.71;65.22;102074.69;5057920;28;20524;-73
2021/06/26 10:47:40;;;;;;;6.70;5.87;;;;;;;20.67;64.33;102069.94;5056094;28;20559;-73
2021/06/26 10:50:17;;;;;;;6.37;4.50;;;;;;;20.57;64.89;102062.34;5054450;28;20498;-75
2021/06/26 10:52:56;;;;;;;6.80;5.20;;;;;;;20.57;65.66;102073.25;5056913;28;20576;-72
2021/06/26 10:55:25;;;;;;;7.33;5.50;;;;;;;20.54;65.08;102069.09;5057426;28;20441;-72
2021/06/26 10:57:50;;;;;;;9.30;5.17;;;;;;;20.59;64.97;102079.28;5050843;28;20818;-70
2021/06/26 11:00:16;;;;;;;7.90;5.67;;;;;;;20.42;65.29;102067.38;5068909;28;20455;-70
2021/06/26 11:02:45;;;;;;;5.83;4.20;;;;;;;20.55;65.12;102075.38;5052691;28;20195;-68
2021/06/26 11:05:12;;;;;;;5.97;4.80;;;;;;;20.54;64.61;102074.56;5049200;28;20449;-69